Data for 11/14/2008

Time Sea-Level Adjusted Pressure Absolute Pressure Temperature Relative Humidity Dew Point   
(mb) (inHg) (mb) (inHg) (C) (F) (%) (C) (F)
00:05 1023 30.21 852 25.16 -0.7 30.8 58 -8 17.6
00:10 1023 30.21 852 25.16 -0.7 30.7 57 -8.1 17.4
00:15 1023 30.21 852 25.16 -0.8 30.6 57 -8.3 17
00:20 1023 30.21 853 25.19 -0.7 30.7 56 -8.4 16.9
00:25 1024 30.24 853 25.19 -0.7 30.7 56 -8.4 16.9
00:30 1024 30.24 853 25.19 -0.7 30.7 57 -8.2 17.2
00:35 1024 30.24 853 25.19 -0.7 30.7 59 -7.8 18
00:40 1024 30.24 853 25.19 -0.8 30.6 57 -8.2 17.3
00:45 1024 30.24 853 25.19 -0.9 30.5 57 -8.4 16.9
00:50 1024 30.24 853 25.19 -0.8 30.5 57 -8.4 17
00:55 1024 30.24 853 25.19 -0.8 30.5 57 -8.3 17
01:00 1024 30.24 853 25.19 -0.8 30.5 57 -8.4 16.8
01:05 1024 30.24 853 25.19 -0.9 30.5 56 -8.5 16.8
01:10 1024 30.24 853 25.19 -0.9 30.5 56 -8.5 16.7
01:15 1024 30.24 853 25.19 -0.8 30.6 56 -8.6 16.5
01:20 1024 30.24 854 25.22 -0.8 30.5 55 -8.8 16.1
01:25 1025 30.27 854 25.22 -0.8 30.6 55 -8.8 16.2
01:30 1024 30.24 854 25.22 -0.8 30.6 54 -8.9 15.9
01:35 1024 30.24 854 25.22 -0.8 30.6 54 -8.9 16
01:40 1025 30.27 854 25.22 -0.8 30.6 54 -9 15.9
01:45 1025 30.27 854 25.22 -0.8 30.6 55 -8.8 16.2
01:50 1025 30.27 854 25.22 -0.8 30.5 55 -8.8 16.1
01:55 1025 30.27 854 25.22 -0.9 30.4 55 -8.8 16.2
02:00 1025 30.27 854 25.22 -0.9 30.4 55 -8.8 16.1
02:05 1025 30.27 854 25.22 -1 30.3 56 -8.8 16.2
02:10 1025 30.27 854 25.22 -1 30.1 56 -8.6 16.5
02:15 1025 30.27 854 25.22 -1.1 30.1 58 -8.4 16.9
02:20 1025 30.27 854 25.22 -1.1 30 57 -8.5 16.8
02:25 1025 30.27 854 25.22 -1.1 30 58 -8.4 16.9
02:30 1025 30.27 854 25.22 -1.1 30 58 -8.3 17
02:35 1025 30.27 854 25.22 -1.1 30 59 -8.2 17.3
02:40 1025 30.27 854 25.22 -1.1 30 58 -8.4 16.9
02:45 1025 30.27 855 25.25 -1.1 30.1 57 -8.5 16.6
02:50 1025 30.27 855 25.25 -1.1 30.1 57 -8.5 16.7
02:55 1025 30.27 855 25.25 -1 30.1 57 -8.4 16.8
03:00 1025 30.27 855 25.25 -1 30.1 57 -8.6 16.5
03:05 1026 30.3 855 25.25 -1 30.2 56 -8.7 16.3
03:10 1026 30.3 855 25.25 -1 30.2 56 -8.7 16.4
03:15 1026 30.3 855 25.25 -1 30.2 57 -8.5 16.7
03:20 1026 30.3 855 25.25 -1 30.2 57 -8.6 16.6
03:25 1026 30.3 855 25.25 -1 30.1 57 -8.5 16.7
03:30 1026 30.3 855 25.25 -1 30.1 58 -8.4 16.9
03:35 1026 30.3 855 25.25 -1.1 30.1 57 -8.4 16.8
03:40 1026 30.3 855 25.25 -1 30.1 58 -8.4 16.9
03:45 1026 30.3 855 25.25 -1.1 30 58 -8.3 17
03:50 1026 30.3 855 25.25 -1.1 30 58 -8.3 17
03:55 1026 30.3 855 25.25 -1.1 30 57 -8.6 16.5
04:00 1026 30.3 855 25.25 -1.1 30 56 -8.7 16.3
04:05 1026 30.3 855 25.25 -1.2 29.9 57 -8.7 16.3
04:10 1026 30.3 855 25.25 -1.2 29.9 56 -8.8 16.1
04:15 1026 30.3 856 25.28 -1.2 29.9 56 -8.9 16.1
04:20 1026 30.3 856 25.28 -1.2 29.8 56 -8.8 16.1
04:25 1026 30.3 856 25.28 -1.2 29.8 56 -8.8 16.2
04:30 1026 30.3 856 25.28 -1.2 29.8 57 -8.7 16.4
04:35 1027 30.33 856 25.28 -1.2 29.8 57 -8.6 16.4
04:40 1027 30.33 856 25.28 -1.3 29.7 56 -8.9 16.1
04:45 1027 30.33 856 25.28 -1.3 29.7 58 -8.6 16.6
04:50 1027 30.33 856 25.28 -1.3 29.7 58 -8.4 16.8
04:55 1027 30.33 856 25.28 -1.3 29.6 58 -8.5 16.7
05:00 1027 30.33 856 25.28 -1.3 29.7 57 -8.9 16.1
05:05 1027 30.33 856 25.28 -1.3 29.6 56 -9 15.7
05:10 1027 30.33 856 25.28 -1.3 29.7 56 -9 15.9
05:15 1027 30.33 856 25.28 -1.3 29.7 56 -9 15.8
05:20 1027 30.33 856 25.28 -1.3 29.6 56 -9.1 15.6
05:25 1027 30.33 856 25.28 -1.4 29.5 56 -9.2 15.5
05:30 1027 30.33 857 25.31 -1.3 29.6 56 -9 15.8
05:35 1027 30.33 857 25.31 -1.3 29.6 57 -8.9 16
05:40 1028 30.36 857 25.31 -1.3 29.6 55 -9.2 15.4
05:45 1028 30.36 857 25.31 -1.4 29.5 57 -8.9 16
05:50 1028 30.36 857 25.31 -1.4 29.5 57 -8.9 16.1
05:55 1028 30.36 857 25.31 -1.4 29.5 56 -9 15.9
06:00 1028 30.36 857 25.31 -1.4 29.4 55 -9.4 15
06:05 1028 30.36 857 25.31 -1.5 29.4 54 -9.5 14.9
06:10 1028 30.36 857 25.31 -1.3 29.6 55 -9.2 15.4
06:15 1028 30.36 857 25.31 -1.3 29.6 56 -9.1 15.6
06:20 1028 30.36 857 25.31 -1.4 29.4 57 -8.8 16.1
06:25 1028 30.36 857 25.31 -1.5 29.2 57 -8.9 16
06:30 1028 30.36 857 25.31 -1.5 29.2 57 -9 15.8
06:35 1028 30.36 857 25.31 -1.5 29.2 57 -9 15.8
06:40 1028 30.36 858 25.34 -1.6 29.2 57 -8.9 15.9
06:45 1029 30.39 858 25.34 -1.5 29.3 56 -9.1 15.5
06:50 1028 30.36 858 25.34 -1.5 29.4 56 -9.2 15.4
06:55 1029 30.39 858 25.34 -1.5 29.2 58 -8.8 16.1
07:00 1029 30.39 858 25.34 -1.6 29.1 58 -8.8 16.1
07:05 1029 30.39 858 25.34 -1.7 29 56 -9.3 15.3
07:10 1029 30.39 858 25.34 -1.6 29 58 -8.9 16
07:15 1029 30.39 858 25.34 -1.7 28.9 57 -9.2 15.5
07:20 1029 30.39 858 25.34 -1.8 28.7 57 -9.2 15.5
07:25 1029 30.39 858 25.34 -1.9 28.5 59 -8.8 16.1
07:30 1029 30.39 858 25.34 -2 28.4 59 -9 15.9
07:35 1029 30.39 858 25.34 -2.1 28.2 58 -9.2 15.5
07:40 1029 30.39 858 25.34 -2.1 28.2 58 -9.2 15.4
07:45 1029 30.39 858 25.34 -2 28.4 58 -9.2 15.4
07:50 1029 30.39 858 25.34 -1.9 28.5 56 -9.5 14.9
07:55 1029 30.39 859 25.37 -1.9 28.5 56 -9.5 14.8
08:00 1029 30.39 859 25.37 -1.9 28.6 54 -10.1 13.8
08:05 1030 30.42 859 25.37 -1.9 28.6 53 -10.3 13.4
08:10 1030 30.42 859 25.37 -1.8 28.7 53 -10.2 13.7
08:15 1030 30.42 859 25.37 -1.8 28.9 53 -10.1 13.8
08:20 1030 30.42 859 25.37 -1.8 28.8 52 -10.3 13.5
08:25 1030 30.42 859 25.37 -1.8 28.7 54 -9.9 14.2
08:30 1030 30.42 859 25.37 -1.8 28.8 54 -10 14
08:35 1030 30.42 859 25.37 -1.7 28.9 53 -10 14.1
08:40 1030 30.42 859 25.37 -1.7 28.9 54 -10 14
08:45 1030 30.42 859 25.37 -1.7 28.9 53 -10 14
08:50 1030 30.42 859 25.37 -1.7 29 53 -10 14
08:55 1030 30.42 859 25.37 -1.7 28.9 53 -10 14
09:00 1030 30.42 859 25.37 -1.7 28.9 54 -9.8 14.3
09:05 1030 30.42 859 25.37 -1.6 29.1 52 -10.3 13.5
09:10 1030 30.42 859 25.37 -1.5 29.2 53 -10 14.1
09:15 1030 30.42 859 25.37 -1.5 29.3 52 -10.1 13.9
09:20 1030 30.42 860 25.4 -1.4 29.4 52 -10.1 13.9
09:25 1030 30.42 860 25.4 -1.4 29.6 52 -10.1 13.8
09:30 1030 30.42 860 25.4 -1.2 29.9 51 -10.1 13.8
09:35 1031 30.45 860 25.4 -1 30.1 50 -10.2 13.7
09:40 1031 30.45 860 25.4 -0.7 30.8 48 -10.4 13.3
09:45 1031 30.45 860 25.4 -0.9 30.5 49 -10.2 13.7
09:50 1031 30.45 860 25.4 -1.1 30 51 -10.2 13.7
09:55 1031 30.45 860 25.4 -1.3 29.7 51 -10.2 13.7
10:00 1031 30.45 860 25.4 -0.9 30.4 48 -10.6 12.8
10:05 1031 30.45 860 25.4 -1.2 29.9 51 -10 13.9
10:10 1031 30.45 860 25.4 -1.3 29.6 51 -10.2 13.7
10:15 1031 30.45 860 25.4 -0.8 30.6 47 -10.7 12.8
10:20 1031 30.45 860 25.4 -0.4 31.2 48 -10.3 13.5
10:25 1031 30.45 860 25.4 -0.2 31.7 46 -10.5 13.1
10:30 1031 30.45 860 25.4 -0 31.9 44 -10.9 12.3
10:35 1031 30.45 860 25.4 0.5 32.9 41 -11.3 11.6
10:40 1031 30.45 860 25.4 1 33.8 41 -10.8 12.5
10:45 1031 30.45 861 25.43 1.6 34.9 38 -11.3 11.6
10:50 1031 30.45 861 25.43 1.5 34.8 37 -11.5 11.3
10:55 1031 30.45 861 25.43 1.8 35.2 36 -11.6 11.1
11:00 1031 30.45 860 25.4 1.9 35.4 37 -11.3 11.7
11:05 1031 30.45 860 25.4 1.9 35.4 37 -11.4 11.4
11:10 1031 30.45 860 25.4 2.1 35.8 38 -10.9 12.5
11:15 1031 30.45 860 25.4 2.1 35.7 37 -11.1 11.9
11:20 1031 30.45 860 25.4 1.7 35.1 37 -11.4 11.5
11:25 1031 30.45 860 25.4 1.7 35.1 39 -10.9 12.3
11:30 1031 30.45 860 25.4 1.8 35.2 36 -11.8 10.8
11:35 1031 30.45 860 25.4 1.5 34.7 35 -12.5 9.5
11:40 1031 30.45 860 25.4 1.1 34 38 -11.9 10.6
11:45 1031 30.45 860 25.4 1.7 35 36 -11.9 10.6
11:50 1031 30.45 860 25.4 2 35.7 36 -11.6 11.1
11:55 1031 30.45 860 25.4 2.2 36 33 -12.3 9.9
12:00 1031 30.45 860 25.4 2.4 36.3 33 -12.4 9.8
12:05 1031 30.45 860 25.4 2.7 36.9 32 -12.6 9.3
12:10 1031 30.45 860 25.4 2.9 37.3 33 -11.6 11
12:15 1031 30.45 860 25.4 2.9 37.2 33 -11.7 10.9
12:20 1031 30.45 860 25.4 2.8 37.1 33 -12 10.4
12:25 1031 30.45 860 25.4 3.2 37.7 32 -12 10.4
12:30 1031 30.45 860 25.4 2.9 37.2 31 -12.6 9.4
12:35 1031 30.45 860 25.4 3 37.4 31 -12.5 9.6
12:40 1031 30.45 860 25.4 3.2 37.8 31 -12.4 9.6
12:45 1031 30.45 860 25.4 3.7 38.6 29 -12.9 8.8
12:50 1030 30.42 860 25.4 3.5 38.4 29 -12.9 8.7
12:55 1030 30.42 860 25.4 3.6 38.4 28 -13.3 8
13:00 1030 30.42 860 25.4 2.9 37.3 29 -13.4 7.9
13:05 1030 30.42 860 25.4 3.2 37.7 28 -13.7 7.3
13:10 1030 30.42 860 25.4 3.5 38.4 28 -13.4 7.9
13:15 1030 30.42 860 25.4 3.6 38.5 28 -13.3 8
13:20 1030 30.42 860 25.4 3 37.4 30 -12.9 8.7
13:25 1030 30.42 860 25.4 3.1 37.6 30 -12.8 8.9
13:30 1030 30.42 860 25.4 3.4 38.1 29 -13.3 8.1
13:35 1030 30.42 860 25.4 3.8 38.9 28 -13.2 8.2
13:40 1030 30.42 859 25.37 3.7 38.7 28 -13.3 8.1
13:45 1030 30.42 859 25.37 3.7 38.7 28 -13.1 8.4
13:50 1030 30.42 859 25.37 3.6 38.4 28 -13.2 8.2
13:55 1030 30.42 859 25.37 3.8 38.9 28 -13.2 8.3
14:00 1030 30.42 859 25.37 4.2 39.5 27 -13.4 7.8
14:05 1030 30.42 859 25.37 4.1 39.4 28 -12.7 9.2
14:10 1030 30.42 859 25.37 3.8 38.9 27 -13.5 7.7
14:15 1030 30.42 859 25.37 4.3 39.7 25 -14.3 6.3
14:20 1030 30.42 859 25.37 4.2 39.5 26 -13.9 6.9
14:25 1030 30.42 859 25.37 4 39.2 26 -13.9 7
14:30 1030 30.42 859 25.37 3.9 39 25 -14.5 6
14:35 1030 30.42 859 25.37 3.9 39.1 25 -14.4 6.1
14:40 1030 30.42 859 25.37 4.1 39.3 24 -14.7 5.5
14:45 1030 30.42 859 25.37 4.2 39.5 25 -14.4 6
14:50 1030 30.42 859 25.37 4.3 39.8 25 -13.9 6.9
14:55 1030 30.42 859 25.37 4.4 39.9 23 -15 5
15:00 1030 30.42 859 25.37 4.3 39.7 25 -14.1 6.6
15:05 1030 30.42 859 25.37 4 39.2 26 -13.9 7
15:10 1030 30.42 859 25.37 4.5 40 25 -13.9 6.9
15:15 1030 30.42 859 25.37 4.6 40.2 24 -14.3 6.2
15:20 1030 30.42 859 25.37 4.4 39.9 26 -13.3 8
15:25 1030 30.42 859 25.37 4 39.3 26 -14 6.8
15:30 1030 30.42 859 25.37 4.2 39.6 25 -14.1 6.6
15:35 1030 30.42 859 25.37 4.4 40 25 -14 6.8
15:40 1030 30.42 859 25.37 4.3 39.7 25 -14 6.8
15:45 1030 30.42 859 25.37 4.4 40 25 -14 6.8
15:50 1030 30.42 859 25.37 4.6 40.2 25 -13.8 7.2
15:55 1030 30.42 859 25.37 4.4 39.8 25 -14.1 6.7
16:00 1030 30.42 859 25.37 4.3 39.7 25 -14.1 6.7
16:05 1030 30.42 859 25.37 4.4 40 25 -13.9 7
16:10 1030 30.42 859 25.37 4.1 39.4 25 -14 6.7
16:15 1030 30.42 859 25.37 3.7 38.7 26 -13.9 6.9
16:20 1030 30.42 859 25.37 3.7 38.6 27 -13.9 6.9
16:25 1030 30.42 860 25.4 3.2 37.8 27 -14 6.8
16:30 1030 30.42 860 25.4 3.4 38.1 26 -14.3 6.3
16:35 1030 30.42 860 25.4 3.6 38.4 27 -13.8 7.1
16:40 1030 30.42 860 25.4 3.2 37.8 28 -13.8 7.1
16:45 1030 30.42 859 25.37 2.6 36.7 29 -13.6 7.5
16:50 1030 30.42 859 25.37 2.2 36 30 -13.7 7.3
16:55 1030 30.42 860 25.4 2 35.6 31 -13.4 7.9
17:00 1030 30.42 860 25.4 2 35.5 32 -13.3 8.1
17:05 1030 30.42 860 25.4 1.7 35 32 -13.3 8
17:10 1030 30.42 860 25.4 1.5 34.7 35 -12.3 9.9
17:15 1030 30.42 860 25.4 1 33.8 36 -12.3 9.8
17:20 1030 30.42 860 25.4 0.7 33.2 37 -12.4 9.7
17:25 1031 30.45 860 25.4 0.6 33.1 41 -11.3 11.6
17:30 1031 30.45 860 25.4 0.3 32.5 43 -10.9 12.3
17:35 1031 30.45 860 25.4 -0 31.9 45 -10.6 12.9
17:40 1031 30.45 860 25.4 -0.3 31.5 47 -10.2 13.6
17:45 1031 30.45 860 25.4 -0.3 31.4 47 -10.4 13.3
17:50 1031 30.45 860 25.4 -0.1 31.8 46 -10.4 13.3
17:55 1031 30.45 860 25.4 -0.2 31.6 48 -10 14.1
18:00 1031 30.45 860 25.4 -0.8 30.6 50 -10 13.9
18:05 1031 30.45 860 25.4 -0.8 30.5 50 -9.9 14.2
18:10 1031 30.45 860 25.4 -0.9 30.5 50 -10.1 13.8
18:15 1031 30.45 860 25.4 -0.9 30.4 50 -10.2 13.7
18:20 1031 30.45 860 25.4 -0.7 30.7 47 -10.6 13
18:25 1031 30.45 860 25.4 -0.6 31 49 -9.9 14.2
18:30 1031 30.45 860 25.4 -1 30.2 50 -10 14
18:35 1031 30.45 860 25.4 -1.2 29.8 51 -10 13.9
18:40 1030 30.42 860 25.4 -1.3 29.7 51 -10.1 13.8
18:45 1030 30.42 860 25.4 -1.1 30 51 -10 14
18:50 1031 30.45 860 25.4 -0.9 30.4 51 -9.8 14.3
18:55 1031 30.45 860 25.4 -0.9 30.4 51 -9.9 14.2
19:00 1031 30.45 860 25.4 -1.1 30.1 52 -9.8 14.3
19:05 1031 30.45 860 25.4 -1.1 30.1 51 -10.1 13.9
19:10 1031 30.45 860 25.4 -1.1 30 51 -10 14
19:15 1031 30.45 860 25.4 -1.3 29.6 53 -9.8 14.4
19:20 1031 30.45 860 25.4 -1.6 29.2 54 -9.6 14.7
19:25 1031 30.45 860 25.4 -1.6 29.2 53 -9.9 14.2
19:30 1031 30.45 860 25.4 -1.5 29.3 53 -9.9 14.3
19:35 1031 30.45 860 25.4 -1.4 29.4 53 -9.7 14.5
19:40 1031 30.45 860 25.4 -1.5 29.4 54 -9.6 14.7
19:45 1031 30.45 860 25.4 -1.6 29.2 54 -9.6 14.7
19:50 1031 30.45 860 25.4 -1.5 29.4 54 -9.5 14.8
19:55 1031 30.45 860 25.4 -1.4 29.5 55 -9.4 15.1
20:00 1031 30.45 860 25.4 -1.5 29.3 55 -9.4 15.1
20:05 1031 30.45 860 25.4 -1.4 29.4 54 -9.5 14.9
20:10 1031 30.45 860 25.4 -1.3 29.6 55 -9.3 15.2
20:15 1031 30.45 860 25.4 -1.3 29.6 55 -9.3 15.2
20:20 1030 30.42 860 25.4 -1.2 29.9 53 -9.6 14.7
20:25 1030 30.42 860 25.4 -1.1 30 53 -9.5 15
20:30 1030 30.42 859 25.37 -1.3 29.7 54 -9.4 15.1
20:35 1030 30.42 859 25.37 -1.5 29.4 56 -9.1 15.6
20:40 1030 30.42 859 25.37 -1.3 29.7 53 -9.7 14.6
20:45 1030 30.42 860 25.4 -0.9 30.3 53 -9.4 15
20:50 1030 30.42 860 25.4 -0.8 30.6 52 -9.5 14.9
20:55 1030 30.42 860 25.4 -0.9 30.3 53 -9.4 15.1
21:00 1030 30.42 860 25.4 -1.3 29.7 51 -10.2 13.6
21:05 1030 30.42 860 25.4 -1.2 29.8 53 -9.7 14.5
21:10 1030 30.42 860 25.4 -1.2 29.9 51 -10.1 13.9
21:15 1030 30.42 860 25.4 -1 30.2 51 -9.9 14.1
21:20 1031 30.45 860 25.4 -1.2 29.9 51 -10.2 13.7
21:25 1030 30.42 860 25.4 -1.1 30 54 -9.4 15.1
21:30 1030 30.42 860 25.4 -1.3 29.8 52 -9.8 14.4
21:35 1030 30.42 860 25.4 -1.4 29.5 52 -10 14
21:40 1030 30.42 860 25.4 -1.3 29.6 47 -11.2 11.8
21:45 1030 30.42 859 25.37 -1.1 30.1 49 -10.5 13.1
21:50 1030 30.42 859 25.37 -1.2 29.8 50 -10.4 13.3
21:55 1030 30.42 859 25.37 -1.3 29.7 53 -9.6 14.7
22:00 1030 30.42 859 25.37 -1.9 28.7 59 -8.9 16
22:05 1030 30.42 859 25.37 -2.1 28.2 54 -10.2 13.6
22:10 1030 30.42 860 25.4 -2 28.3 55 -9.9 14.1
22:15 1030 30.42 859 25.37 -1.9 28.6 52 -10.4 13.2
22:20 1030 30.42 860 25.4 -1.7 28.9 51 -10.5 13.1
22:25 1030 30.42 859 25.37 -1.8 28.8 47 -11.7 11
22:30 1030 30.42 859 25.37 -1.4 29.6 48 -11.1 12.1
22:35 1030 30.42 859 25.37 -1.6 29.1 47 -11.4 11.5
22:40 1030 30.42 859 25.37 -1.7 28.9 48 -11.3 11.7
22:45 1030 30.42 859 25.37 -1.8 28.8 49 -11 12.2
22:50 1030 30.42 860 25.4 -1.9 28.6 54 -10 13.9
22:55 1030 30.42 860 25.4 -1.9 28.5 56 -9.5 14.9
23:00 1030 30.42 860 25.4 -2.3 27.8 61 -8.9 16
23:05 1030 30.42 860 25.4 -2.5 27.5 56 -10.1 13.9
23:10 1030 30.42 859 25.37 -2.1 28.3 51 -11 12.3
23:15 1030 30.42 860 25.4 -1.8 28.8 50 -10.9 12.5
23:20 1030 30.42 860 25.4 -1.4 29.5 53 -9.9 14.3
23:25 1030 30.42 860 25.4 -1.8 28.8 55 -9.6 14.7
23:30 1030 30.42 860 25.4 -1.9 28.6 51 -10.6 12.9
23:35 1030 30.42 860 25.4 -1.5 29.2 42 -12.8 9
23:40 1030 30.42 860 25.4 -0.9 30.5 51 -9.8 14.4
23:45 1031 30.45 860 25.4 -1.3 29.7 51 -10.1 13.8
23:50 1031 30.45 860 25.4 -1.7 29 53 -10.1 13.8
23:55 1031 30.45 860 25.4 -1.9 28.5 53 -10.4 13.4
24:00 1031 30.45 860 25.4 -2.1 28.2 55 -10 13.9